createdAt,value
2023-02-01T00:02:11.919Z,4.68
2023-02-01T00:05:59.957Z,5.25
2023-02-01T00:09:41.967Z,5.38
2023-02-01T00:13:23.735Z,4.28
2023-02-01T00:17:07.479Z,4.93
2023-02-01T00:24:32.100Z,4.55
2023-02-01T00:28:13.971Z,5.65
2023-02-01T00:31:55.890Z,5.30
2023-02-01T00:35:37.699Z,5.38
2023-02-01T00:39:21.828Z,5.70
2023-02-01T00:43:03.552Z,5.55
2023-02-01T00:46:45.405Z,5.22
2023-02-01T00:50:27.279Z,4.10
2023-02-01T00:54:08.969Z,4.40
2023-02-01T00:57:50.646Z,4.22
2023-02-01T01:01:33.670Z,4.40
2023-02-01T01:05:15.416Z,5.93
2023-02-01T01:08:58.076Z,5.32
2023-02-01T01:12:39.866Z,4.63
2023-02-01T01:16:21.956Z,4.90
2023-02-01T01:20:04.806Z,4.55
2023-02-01T01:23:46.769Z,5.43
2023-02-01T01:27:28.445Z,4.63
2023-02-01T01:31:11.816Z,4.95
2023-02-01T01:34:53.599Z,4.53
2023-02-01T01:38:36.095Z,4.30
2023-02-01T01:42:18.015Z,5.70
2023-02-01T01:45:59.690Z,5.28
2023-02-01T01:49:41.401Z,3.80
2023-02-01T01:53:25.868Z,5.00
2023-02-01T01:57:15.339Z,5.38
2023-02-01T02:00:57.264Z,5.07
2023-02-01T02:04:38.994Z,4.70
2023-02-01T02:08:21.384Z,4.82
2023-02-01T02:12:03.296Z,4.18
2023-02-01T02:15:54.327Z,3.67
2023-02-01T02:20:13.435Z,4.65
2023-02-01T02:23:55.194Z,4.25
2023-02-01T02:27:51.875Z,4.35
2023-02-01T02:32:30.270Z,3.95
2023-02-01T02:36:24.527Z,5.10
2023-02-01T02:40:31.178Z,4.78
2023-02-01T02:44:53.439Z,4.68
2023-02-01T02:48:44.300Z,4.63
2023-02-01T02:52:44.597Z,4.72
2023-02-01T02:56:44.735Z,4.00
2023-02-01T03:00:51.327Z,4.43
2023-02-01T03:04:33.086Z,4.80
2023-02-01T03:08:22.456Z,4.78
2023-02-01T03:12:41.782Z,4.80
2023-02-01T03:16:50.504Z,4.50
2023-02-01T03:20:32.980Z,5.43
2023-02-01T03:24:34.335Z,4.22
2023-02-01T03:28:16.185Z,4.18
2023-02-01T03:31:58.058Z,4.90
2023-02-01T03:36:08.956Z,4.20
2023-02-01T03:40:00.602Z,4.28
2023-02-01T03:44:14.081Z,4.22
2023-02-01T03:47:57.123Z,4.70
2023-02-01T03:51:44.429Z,4.30
2023-02-01T03:55:26.575Z,4.65
2023-02-01T03:59:09.175Z,4.47
2023-02-01T04:02:51.201Z,4.75
2023-02-01T04:06:32.915Z,4.72
2023-02-01T04:10:19.609Z,4.43
2023-02-01T04:14:05.283Z,4.30
2023-02-01T04:17:47.114Z,4.00
2023-02-01T04:21:29.145Z,3.63
2023-02-01T04:25:10.848Z,4.22
2023-02-01T04:28:53.683Z,4.20
2023-02-01T04:32:55.260Z,4.77
2023-02-01T04:36:36.964Z,4.55
2023-02-01T04:40:38.776Z,4.25
2023-02-01T04:44:20.555Z,4.40
2023-02-01T04:48:02.305Z,4.50
2023-02-01T04:51:44.332Z,4.72
2023-02-01T04:55:26.033Z,4.47
2023-02-01T04:59:07.732Z,4.68
2023-02-01T05:02:49.456Z,4.60
2023-02-01T05:06:31.160Z,5.05
2023-02-01T05:10:15.147Z,4.55
2023-02-01T05:13:56.864Z,3.95
2023-02-01T05:17:41.006Z,4.55
2023-02-01T05:21:23.065Z,4.70
2023-02-01T05:25:06.820Z,5.28
2023-02-01T05:28:49.912Z,4.72
2023-02-01T05:32:32.882Z,5.30
2023-02-01T05:36:14.789Z,5.47
2023-02-01T05:40:16.204Z,4.60
2023-02-01T05:43:57.903Z,4.47
2023-02-01T05:47:39.640Z,4.40
2023-02-01T05:51:22.570Z,4.53
2023-02-01T05:55:04.807Z,4.13
2023-02-01T05:58:46.504Z,5.22
2023-02-01T06:02:28.256Z,5.10
2023-02-01T06:06:10.035Z,4.97
2023-02-01T06:09:51.845Z,3.83
2023-02-01T06:13:34.692Z,4.70
2023-02-01T06:17:16.663Z,4.40
2023-02-01T06:21:01.042Z,5.47
2023-02-01T06:24:42.799Z,4.35
2023-02-01T06:28:24.687Z,4.90
2023-02-01T06:32:44.387Z,4.70
2023-02-01T06:36:26.136Z,5.03
2023-02-01T06:40:09.675Z,4.80
2023-02-01T06:43:51.469Z,3.97
2023-02-01T06:47:33.167Z,4.78
2023-02-01T06:51:25.932Z,4.15
2023-02-01T06:55:08.000Z,4.97
2023-02-01T06:58:49.922Z,4.55
2023-02-01T07:02:31.807Z,5.28
2023-02-01T07:06:13.521Z,4.43
2023-02-01T07:09:56.246Z,4.40
2023-02-01T07:13:37.953Z,4.47
2023-02-01T07:17:19.648Z,4.25
2023-02-01T07:21:01.619Z,4.80
2023-02-01T07:24:43.478Z,5.03
2023-02-01T07:28:25.522Z,4.30
2023-02-01T07:32:10.530Z,4.97
2023-02-01T07:35:52.352Z,4.93
2023-02-01T07:39:35.239Z,4.72
2023-02-01T07:43:17.106Z,5.07
2023-02-01T07:46:58.780Z,4.47
2023-02-01T07:50:41.610Z,4.50
2023-02-01T07:54:23.369Z,4.83
2023-02-01T07:58:05.038Z,4.10
2023-02-01T08:01:46.990Z,5.05
2023-02-01T08:05:28.717Z,4.75
2023-02-01T08:09:32.094Z,4.65
2023-02-01T08:13:13.803Z,5.00
2023-02-01T08:16:55.543Z,5.35
2023-02-01T08:20:39.583Z,4.20
2023-02-01T08:24:22.353Z,4.72
2023-02-01T08:28:04.423Z,5.10
2023-02-01T08:31:46.305Z,5.97
2023-02-01T08:35:42.452Z,4.82
2023-02-01T08:39:26.041Z,5.43
2023-02-01T08:43:08.140Z,4.50
2023-02-01T08:46:49.853Z,5.05
2023-02-01T08:50:32.781Z,5.43
2023-02-01T08:54:14.500Z,5.77
2023-02-01T08:57:56.870Z,5.07
2023-02-01T09:01:38.862Z,4.30
2023-02-01T09:05:23.293Z,5.10
2023-02-01T09:09:05.040Z,4.85
2023-02-01T09:12:46.743Z,5.10
2023-02-01T09:16:28.955Z,6.30
2023-02-01T09:20:13.284Z,5.25
2023-02-01T09:23:54.989Z,5.15
2023-02-01T09:27:36.712Z,4.63
2023-02-01T09:31:20.792Z,5.35
2023-02-01T09:35:02.741Z,4.55
2023-02-01T09:38:52.294Z,5.57
2023-02-01T09:42:45.451Z,4.57
2023-02-01T09:46:32.030Z,5.55
2023-02-01T09:50:21.753Z,4.47
2023-02-01T09:54:06.666Z,4.63
2023-02-01T09:58:03.321Z,4.97
2023-02-01T10:01:47.306Z,5.30
2023-02-01T10:05:42.456Z,4.57
2023-02-01T10:09:34.995Z,5.03
2023-02-01T10:13:39.729Z,4.75
2023-02-01T10:17:40.383Z,5.38
2023-02-01T10:21:42.670Z,5.82
2023-02-01T10:25:29.742Z,5.57
2023-02-01T10:29:18.142Z,5.35
2023-02-01T10:33:18.313Z,5.13
2023-02-01T10:37:13.087Z,4.68
2023-02-01T10:40:56.235Z,4.93
2023-02-01T10:44:38.754Z,5.63
2023-02-01T10:48:20.675Z,4.50
2023-02-01T10:52:31.870Z,4.68
2023-02-01T10:56:13.739Z,5.10
2023-02-01T10:59:56.747Z,4.82
2023-02-01T11:03:41.214Z,4.32
2023-02-01T11:07:26.596Z,4.32
2023-02-01T11:11:12.104Z,4.43
2023-02-01T11:15:16.337Z,4.25
2023-02-01T11:18:58.076Z,3.72
2023-02-01T11:22:39.839Z,3.80
2023-02-01T11:26:28.030Z,5.03
2023-02-01T11:30:16.150Z,4.63
2023-02-01T11:34:15.576Z,4.75
2023-02-01T11:38:02.431Z,3.80
2023-02-01T11:42:13.063Z,3.83
2023-02-01T11:45:55.585Z,4.78
2023-02-01T11:49:37.302Z,4.20
2023-02-01T11:53:49.300Z,4.38
2023-02-01T11:57:43.076Z,4.10
2023-02-01T12:01:48.427Z,3.80
2023-02-01T12:05:42.130Z,4.63
2023-02-01T12:09:30.143Z,4.22
2023-02-01T12:13:51.807Z,4.35
2023-02-01T12:18:03.863Z,5.07
2023-02-01T12:21:51.779Z,3.92
2023-02-01T12:25:33.486Z,4.38
2023-02-01T12:29:51.970Z,4.25
2023-02-01T12:33:41.726Z,4.40
2023-02-01T12:37:45.323Z,3.88
2023-02-01T12:41:31.333Z,4.57
2023-02-01T12:45:28.389Z,4.18
2023-02-01T12:49:15.634Z,4.57
2023-02-01T12:53:07.496Z,4.47
2023-02-01T12:56:52.588Z,3.85
2023-02-01T13:00:44.592Z,3.90
2023-02-01T13:04:38.866Z,4.20
2023-02-01T13:08:26.264Z,4.43
2023-02-01T13:12:16.600Z,4.30
2023-02-01T13:16:29.701Z,5.82
2023-02-01T13:20:15.407Z,4.20
2023-02-01T13:23:57.144Z,4.18
2023-02-01T13:27:38.885Z,4.18
2023-02-01T13:31:30.752Z,3.88
2023-02-01T13:35:22.024Z,4.82
2023-02-01T13:39:07.364Z,4.60
2023-02-01T13:42:50.645Z,4.78
2023-02-01T13:46:38.862Z,4.72
2023-02-01T13:50:22.663Z,4.30
2023-02-01T13:57:46.957Z,3.92
2023-02-01T14:01:28.719Z,5.45
2023-02-01T14:05:11.709Z,4.55
2023-02-01T14:09:14.708Z,3.90
2023-02-01T14:13:25.106Z,4.72
2023-02-01T14:17:09.770Z,3.78
2023-02-01T14:20:54.134Z,4.40
2023-02-01T14:24:36.002Z,5.68
2023-02-01T14:28:28.612Z,4.68
2023-02-01T14:32:23.390Z,4.75
2023-02-01T14:36:10.534Z,4.55
2023-02-01T14:39:56.826Z,4.22
2023-02-01T14:43:51.759Z,4.90
2023-02-01T14:47:34.345Z,7.47
2023-02-01T14:51:16.874Z,5.60
2023-02-01T14:55:01.277Z,4.97
2023-02-01T14:58:44.053Z,6.18
2023-02-01T15:02:26.950Z,5.45
2023-02-01T15:06:22.679Z,4.40
2023-02-01T15:10:05.767Z,4.55
2023-02-01T15:13:53.598Z,5.55
2023-02-01T15:17:35.555Z,4.90
2023-02-01T15:21:28.217Z,4.10
2023-02-01T15:25:22.086Z,5.50
2023-02-01T15:29:03.931Z,5.15
2023-02-01T15:32:45.940Z,5.22
2023-02-01T15:36:29.734Z,5.60
2023-02-01T15:40:11.583Z,7.15
2023-02-01T15:43:56.086Z,5.28
2023-02-01T15:47:37.823Z,6.15
2023-02-01T15:51:24.896Z,5.35
2023-02-01T15:55:20.279Z,4.97
2023-02-01T15:59:02.978Z,4.47
2023-02-01T16:03:22.182Z,5.57
2023-02-01T16:07:05.738Z,5.25
2023-02-01T16:10:49.126Z,5.40
2023-02-01T16:14:30.822Z,4.25
2023-02-01T16:18:13.059Z,4.38
2023-02-01T16:21:59.881Z,5.05
2023-02-01T16:25:41.592Z,5.45
2023-02-01T16:29:43.277Z,4.32
2023-02-01T16:33:25.095Z,4.18
2023-02-01T16:37:06.806Z,5.90
2023-02-01T16:40:50.298Z,4.63
2023-02-01T16:44:32.013Z,4.55
2023-02-01T16:48:17.858Z,5.15
2023-02-01T16:52:00.805Z,4.95
2023-02-01T16:55:44.440Z,5.00
2023-02-01T16:59:26.164Z,5.97
2023-02-01T17:03:07.893Z,4.45
2023-02-01T17:06:49.927Z,4.57
2023-02-01T17:10:34.306Z,4.82
2023-02-01T17:14:18.194Z,5.28
2023-02-01T17:18:02.663Z,4.68
2023-02-01T17:21:50.431Z,5.15
2023-02-01T17:25:32.173Z,5.55
2023-02-01T17:29:14.414Z,3.78
2023-02-01T17:32:56.912Z,4.75
2023-02-01T17:36:40.095Z,4.68
2023-02-01T17:40:22.029Z,7.13
2023-02-01T17:44:04.496Z,6.20
2023-02-01T17:47:49.291Z,8.88
2023-02-01T17:51:32.574Z,8.38
2023-02-01T17:55:22.464Z,6.15
2023-02-01T17:59:04.395Z,7.47
2023-02-01T18:02:46.183Z,6.20
2023-02-01T18:06:28.080Z,4.85
2023-02-01T18:10:11.396Z,5.18
2023-02-01T18:13:53.656Z,3.80
2023-02-01T18:17:35.326Z,5.10
2023-02-01T18:21:17.861Z,5.47
2023-02-01T18:24:59.558Z,4.82
2023-02-01T18:28:59.659Z,5.80
2023-02-01T18:32:41.690Z,4.88
2023-02-01T18:36:23.613Z,5.30
2023-02-01T18:40:07.275Z,6.25
2023-02-01T18:43:49.591Z,5.50
2023-02-01T18:47:31.268Z,5.50
2023-02-01T18:51:19.932Z,5.18
2023-02-01T18:55:01.629Z,4.88
2023-02-01T18:58:43.313Z,5.28
2023-02-01T19:02:25.252Z,3.90
2023-02-01T19:06:07.909Z,4.63
2023-02-01T19:09:49.688Z,4.65
2023-02-01T19:13:31.864Z,4.97
2023-02-01T19:17:13.535Z,4.68
2023-02-01T19:20:56.318Z,4.63
2023-02-01T19:24:39.622Z,4.10
2023-02-01T19:28:21.358Z,3.70
2023-02-01T19:32:05.339Z,4.10
2023-02-01T19:35:47.008Z,4.43
2023-02-01T19:39:31.986Z,4.40
2023-02-01T19:43:23.353Z,3.90
2023-02-01T19:47:05.092Z,4.63
2023-02-01T19:50:48.046Z,7.70
2023-02-01T19:54:29.735Z,7.70
2023-02-01T19:58:11.465Z,6.90
2023-02-01T20:01:52.667Z,5.55
2023-02-01T20:05:34.382Z,7.50
2023-02-01T20:09:20.645Z,5.38
2023-02-01T20:13:02.383Z,8.27
2023-02-01T20:16:44.107Z,6.47
2023-02-01T20:20:25.869Z,6.38
2023-02-01T20:24:07.998Z,4.60
2023-02-01T20:27:53.270Z,4.55
2023-02-01T20:31:36.183Z,3.20
2023-02-01T20:35:18.750Z,4.17
2023-02-01T20:39:00.494Z,4.70
2023-02-01T20:42:42.175Z,4.00
2023-02-01T20:46:24.161Z,5.20
2023-02-01T20:50:06.365Z,6.07
2023-02-01T20:53:48.815Z,5.43
2023-02-01T20:57:30.503Z,3.90
2023-02-01T21:01:12.501Z,4.90
2023-02-01T21:04:54.302Z,4.72
2023-02-01T21:08:36.020Z,3.63
2023-02-01T21:12:18.743Z,4.18
2023-02-01T21:16:00.491Z,4.22
2023-02-01T21:19:45.062Z,4.28
2023-02-01T21:23:26.831Z,3.63
2023-02-01T21:27:09.233Z,3.75
2023-02-01T21:30:52.075Z,2.95
2023-02-01T21:34:34.529Z,3.17
2023-02-01T21:38:16.874Z,4.20
2023-02-01T21:42:13.513Z,4.03
2023-02-01T21:45:55.221Z,5.78
2023-02-01T21:49:36.963Z,4.20
2023-02-01T21:53:19.075Z,4.07
2023-02-01T21:57:00.844Z,3.53
2023-02-01T22:00:45.806Z,3.78
2023-02-01T22:04:27.657Z,4.32
2023-02-01T22:08:09.365Z,4.93
2023-02-01T22:11:52.286Z,4.50
2023-02-01T22:15:33.994Z,4.27
2023-02-01T22:19:16.836Z,3.40
2023-02-01T22:22:58.522Z,3.63
2023-02-01T22:26:40.576Z,3.45
2023-02-01T22:30:22.494Z,4.22
2023-02-01T22:34:06.856Z,3.05
2023-02-01T22:37:48.777Z,3.15
2023-02-01T22:41:30.648Z,3.38
2023-02-01T22:45:13.420Z,3.28
2023-02-01T22:48:55.119Z,3.25
2023-02-01T22:52:36.949Z,3.03
2023-02-01T22:56:18.645Z,3.15
2023-02-01T23:00:05.295Z,2.72
2023-02-01T23:03:47.009Z,3.40
2023-02-01T23:07:28.710Z,3.40
2023-02-01T23:11:10.692Z,2.80
2023-02-01T23:15:08.150Z,2.80
2023-02-01T23:18:49.883Z,2.40
2023-02-01T23:22:50.327Z,3.40
2023-02-01T23:26:32.267Z,2.10
2023-02-01T23:30:16.536Z,3.08
2023-02-01T23:33:59.801Z,2.63
2023-02-01T23:37:41.530Z,2.50
2023-02-01T23:41:23.729Z,2.58
2023-02-01T23:45:05.850Z,3.13
2023-02-01T23:48:48.422Z,2.95
2023-02-01T23:52:32.591Z,2.28
2023-02-01T23:56:18.991Z,3.22
